sensor_id;sensor_type;location;lat;lon;timestamp;P1;durP1;ratioP1;P2;durP2;ratioP2
21202;SDS011;10759;51.982;9.232;2023-02-13T00:03:04;14.18;;;12.90;;
21202;SDS011;10759;51.982;9.232;2023-02-13T00:05:32;13.93;;;12.73;;
21202;SDS011;10759;51.982;9.232;2023-02-13T00:08:00;14.15;;;12.88;;
21202;SDS011;10759;51.982;9.232;2023-02-13T00:10:28;14.68;;;13.18;;
21202;SDS011;10759;51.982;9.232;2023-02-13T00:12:56;15.32;;;13.68;;
21202;SDS011;10759;51.982;9.232;2023-02-13T00:15:25;13.50;;;12.27;;
21202;SDS011;10759;51.982;9.232;2023-02-13T00:17:53;15.77;;;14.27;;
21202;SDS011;10759;51.982;9.232;2023-02-13T00:20:21;14.70;;;13.30;;
21202;SDS011;10759;51.982;9.232;2023-02-13T00:22:49;17.75;;;15.82;;
21202;SDS011;10759;51.982;9.232;2023-02-13T00:25:17;17.42;;;15.73;;
21202;SDS011;10759;51.982;9.232;2023-02-13T00:27:45;17.95;;;15.70;;
21202;SDS011;10759;51.982;9.232;2023-02-13T00:30:13;17.67;;;16.05;;
21202;SDS011;10759;51.982;9.232;2023-02-13T00:32:43;17.25;;;15.73;;
21202;SDS011;10759;51.982;9.232;2023-02-13T00:35:11;18.40;;;16.57;;
21202;SDS011;10759;51.982;9.232;2023-02-13T00:37:39;19.63;;;17.70;;
21202;SDS011;10759;51.982;9.232;2023-02-13T00:40:07;19.13;;;17.23;;
21202;SDS011;10759;51.982;9.232;2023-02-13T00:42:36;18.67;;;16.70;;
21202;SDS011;10759;51.982;9.232;2023-02-13T00:45:04;17.05;;;15.40;;
21202;SDS011;10759;51.982;9.232;2023-02-13T00:47:32;15.70;;;14.20;;
21202;SDS011;10759;51.982;9.232;2023-02-13T00:50:02;16.20;;;14.73;;
21202;SDS011;10759;51.982;9.232;2023-02-13T00:52:30;16.95;;;15.50;;
21202;SDS011;10759;51.982;9.232;2023-02-13T00:54:58;19.10;;;17.25;;
21202;SDS011;10759;51.982;9.232;2023-02-13T00:57:26;16.42;;;14.75;;
21202;SDS011;10759;51.982;9.232;2023-02-13T00:59:54;17.30;;;15.80;;
21202;SDS011;10759;51.982;9.232;2023-02-13T01:02:22;17.48;;;15.88;;
21202;SDS011;10759;51.982;9.232;2023-02-13T01:04:50;16.23;;;14.73;;
21202;SDS011;10759;51.982;9.232;2023-02-13T01:07:19;17.35;;;15.70;;
21202;SDS011;10759;51.982;9.232;2023-02-13T01:09:47;17.77;;;15.73;;
21202;SDS011;10759;51.982;9.232;2023-02-13T01:12:15;16.88;;;15.05;;
21202;SDS011;10759;51.982;9.232;2023-02-13T01:14:43;16.90;;;15.27;;
21202;SDS011;10759;51.982;9.232;2023-02-13T01:17:11;15.18;;;13.77;;
21202;SDS011;10759;51.982;9.232;2023-02-13T01:19:39;14.18;;;12.77;;
21202;SDS011;10759;51.982;9.232;2023-02-13T01:22:07;13.32;;;12.00;;
21202;SDS011;10759;51.982;9.232;2023-02-13T01:24:37;13.05;;;11.90;;
21202;SDS011;10759;51.982;9.232;2023-02-13T01:27:05;14.13;;;12.77;;
21202;SDS011;10759;51.982;9.232;2023-02-13T01:29:33;13.98;;;12.40;;
21202;SDS011;10759;51.982;9.232;2023-02-13T01:32:02;13.50;;;12.23;;
21202;SDS011;10759;51.982;9.232;2023-02-13T01:34:31;13.50;;;12.23;;
21202;SDS011;10759;51.982;9.232;2023-02-13T01:37:00;13.15;;;11.93;;
21202;SDS011;10759;51.982;9.232;2023-02-13T01:39:28;12.18;;;11.07;;
21202;SDS011;10759;51.982;9.232;2023-02-13T01:41:58;12.95;;;11.43;;
21202;SDS011;10759;51.982;9.232;2023-02-13T01:44:48;12.77;;;11.43;;
21202;SDS011;10759;51.982;9.232;2023-02-13T01:47:21;12.50;;;11.38;;
21202;SDS011;10759;51.982;9.232;2023-02-13T01:50:02;13.18;;;11.98;;
21202;SDS011;10759;51.982;9.232;2023-02-13T01:52:34;11.45;;;10.55;;
21202;SDS011;10759;51.982;9.232;2023-02-13T01:55:04;12.82;;;11.57;;
21202;SDS011;10759;51.982;9.232;2023-02-13T01:57:35;12.50;;;11.30;;
21202;SDS011;10759;51.982;9.232;2023-02-13T02:00:06;13.05;;;11.75;;
21202;SDS011;10759;51.982;9.232;2023-02-13T02:02:48;12.60;;;11.47;;
21202;SDS011;10759;51.982;9.232;2023-02-13T02:05:25;12.18;;;11.07;;
21202;SDS011;10759;51.982;9.232;2023-02-13T02:07:55;12.13;;;11.13;;
21202;SDS011;10759;51.982;9.232;2023-02-13T02:10:25;13.25;;;11.98;;
21202;SDS011;10759;51.982;9.232;2023-02-13T02:12:57;12.88;;;11.68;;
21202;SDS011;10759;51.982;9.232;2023-02-13T02:15:29;11.65;;;10.45;;
21202;SDS011;10759;51.982;9.232;2023-02-13T02:17:57;12.90;;;11.70;;
21202;SDS011;10759;51.982;9.232;2023-02-13T02:20:30;13.38;;;12.18;;
21202;SDS011;10759;51.982;9.232;2023-02-13T02:23:31;13.63;;;11.57;;
21202;SDS011;10759;51.982;9.232;2023-02-13T02:26:25;11.25;;;10.25;;
21202;SDS011;10759;51.982;9.232;2023-02-13T02:29:24;11.10;;;9.75;;
21202;SDS011;10759;51.982;9.232;2023-02-13T02:35:08;11.13;;;9.98;;
21202;SDS011;10759;51.982;9.232;2023-02-13T02:37:50;10.30;;;9.40;;
21202;SDS011;10759;51.982;9.232;2023-02-13T02:40:31;11.13;;;9.98;;
21202;SDS011;10759;51.982;9.232;2023-02-13T02:43:13;10.25;;;9.25;;
21202;SDS011;10759;51.982;9.232;2023-02-13T02:45:51;10.85;;;9.85;;
21202;SDS011;10759;51.982;9.232;2023-02-13T02:48:29;9.77;;;8.95;;
21202;SDS011;10759;51.982;9.232;2023-02-13T02:51:22;10.55;;;9.50;;
21202;SDS011;10759;51.982;9.232;2023-02-13T02:53:57;9.85;;;9.05;;
21202;SDS011;10759;51.982;9.232;2023-02-13T02:56:51;10.57;;;9.38;;
21202;SDS011;10759;51.982;9.232;2023-02-13T02:59:25;9.80;;;8.95;;
21202;SDS011;10759;51.982;9.232;2023-02-13T03:02:12;10.95;;;9.95;;
21202;SDS011;10759;51.982;9.232;2023-02-13T03:05:01;10.68;;;9.77;;
21202;SDS011;10759;51.982;9.232;2023-02-13T03:07:47;12.02;;;10.93;;
21202;SDS011;10759;51.982;9.232;2023-02-13T03:10:17;11.43;;;10.20;;
21202;SDS011;10759;51.982;9.232;2023-02-13T03:13:12;10.43;;;9.43;;
21202;SDS011;10759;51.982;9.232;2023-02-13T03:15:50;10.38;;;9.48;;
21202;SDS011;10759;51.982;9.232;2023-02-13T03:18:39;10.02;;;9.02;;
21202;SDS011;10759;51.982;9.232;2023-02-13T03:21:32;9.43;;;8.50;;
21202;SDS011;10759;51.982;9.232;2023-02-13T03:24:27;9.90;;;8.60;;
21202;SDS011;10759;51.982;9.232;2023-02-13T03:27:03;10.95;;;9.85;;
21202;SDS011;10759;51.982;9.232;2023-02-13T03:29:40;10.38;;;9.38;;
21202;SDS011;10759;51.982;9.232;2023-02-13T03:32:31;10.90;;;9.82;;
21202;SDS011;10759;51.982;9.232;2023-02-13T03:35:13;11.80;;;10.70;;
21202;SDS011;10759;51.982;9.232;2023-02-13T03:38:10;13.50;;;12.10;;
21202;SDS011;10759;51.982;9.232;2023-02-13T03:40:44;12.70;;;11.40;;
21202;SDS011;10759;51.982;9.232;2023-02-13T03:43:35;13.85;;;11.75;;
21202;SDS011;10759;51.982;9.232;2023-02-13T03:46:11;15.57;;;11.82;;
21202;SDS011;10759;51.982;9.232;2023-02-13T03:51:31;12.93;;;11.70;;
21202;SDS011;10759;51.982;9.232;2023-02-13T03:54:05;14.18;;;12.88;;
21202;SDS011;10759;51.982;9.232;2023-02-13T03:56:39;13.73;;;12.35;;
21202;SDS011;10759;51.982;9.232;2023-02-13T03:59:28;13.73;;;12.20;;
21202;SDS011;10759;51.982;9.232;2023-02-13T04:02:00;13.25;;;11.95;;
21202;SDS011;10759;51.982;9.232;2023-02-13T04:04:37;13.82;;;12.43;;
21202;SDS011;10759;51.982;9.232;2023-02-13T04:07:11;13.25;;;11.43;;
21202;SDS011;10759;51.982;9.232;2023-02-13T04:09:56;12.65;;;11.35;;
21202;SDS011;10759;51.982;9.232;2023-02-13T04:12:30;13.88;;;12.40;;
21202;SDS011;10759;51.982;9.232;2023-02-13T04:15:06;12.15;;;10.95;;
21202;SDS011;10759;51.982;9.232;2023-02-13T04:17:38;13.57;;;12.18;;
21202;SDS011;10759;51.982;9.232;2023-02-13T04:20:10;12.50;;;11.20;;
21202;SDS011;10759;51.982;9.232;2023-02-13T04:22:41;12.98;;;11.05;;
21202;SDS011;10759;51.982;9.232;2023-02-13T04:25:11;12.60;;;11.13;;
21202;SDS011;10759;51.982;9.232;2023-02-13T04:27:42;12.18;;;10.95;;
21202;SDS011;10759;51.982;9.232;2023-02-13T04:30:10;14.25;;;10.80;;
21202;SDS011;10759;51.982;9.232;2023-02-13T04:32:38;12.25;;;11.00;;
21202;SDS011;10759;51.982;9.232;2023-02-13T04:35:07;12.60;;;10.75;;
21202;SDS011;10759;51.982;9.232;2023-02-13T04:37:36;11.23;;;10.02;;
21202;SDS011;10759;51.982;9.232;2023-02-13T04:40:05;14.93;;;13.43;;
21202;SDS011;10759;51.982;9.232;2023-02-13T04:42:35;13.88;;;12.43;;
21202;SDS011;10759;51.982;9.232;2023-02-13T04:45:03;14.18;;;11.93;;
21202;SDS011;10759;51.982;9.232;2023-02-13T04:47:31;14.95;;;11.73;;
21202;SDS011;10759;51.982;9.232;2023-02-13T04:49:59;13.18;;;11.88;;
21202;SDS011;10759;51.982;9.232;2023-02-13T04:52:27;13.45;;;12.02;;
21202;SDS011;10759;51.982;9.232;2023-02-13T04:54:54;13.20;;;11.82;;
21202;SDS011;10759;51.982;9.232;2023-02-13T04:57:23;20.23;;;13.52;;
21202;SDS011;10759;51.982;9.232;2023-02-13T04:59:52;16.98;;;12.32;;
21202;SDS011;10759;51.982;9.232;2023-02-13T05:02:20;15.32;;;12.88;;
21202;SDS011;10759;51.982;9.232;2023-02-13T05:04:48;14.48;;;12.80;;
21202;SDS011;10759;51.982;9.232;2023-02-13T05:07:16;14.63;;;13.10;;
21202;SDS011;10759;51.982;9.232;2023-02-13T05:09:44;14.15;;;12.30;;
21202;SDS011;10759;51.982;9.232;2023-02-13T05:12:12;12.95;;;11.40;;
21202;SDS011;10759;51.982;9.232;2023-02-13T05:14:41;14.93;;;12.07;;
21202;SDS011;10759;51.982;9.232;2023-02-13T05:17:10;17.98;;;14.55;;
21202;SDS011;10759;51.982;9.232;2023-02-13T05:19:38;17.30;;;14.05;;
21202;SDS011;10759;51.982;9.232;2023-02-13T05:22:07;15.45;;;13.40;;
21202;SDS011;10759;51.982;9.232;2023-02-13T05:24:52;15.73;;;13.35;;
21202;SDS011;10759;51.982;9.232;2023-02-13T05:27:20;16.15;;;13.65;;
21202;SDS011;10759;51.982;9.232;2023-02-13T05:29:48;15.43;;;12.93;;
21202;SDS011;10759;51.982;9.232;2023-02-13T05:32:17;13.93;;;12.43;;
21202;SDS011;10759;51.982;9.232;2023-02-13T05:34:45;15.43;;;12.95;;
21202;SDS011;10759;51.982;9.232;2023-02-13T05:37:13;16.65;;;14.00;;
21202;SDS011;10759;51.982;9.232;2023-02-13T05:39:41;17.05;;;14.25;;
21202;SDS011;10759;51.982;9.232;2023-02-13T05:42:09;15.02;;;13.15;;
21202;SDS011;10759;51.982;9.232;2023-02-13T05:44:37;17.92;;;14.13;;
21202;SDS011;10759;51.982;9.232;2023-02-13T05:47:05;16.70;;;13.50;;
21202;SDS011;10759;51.982;9.232;2023-02-13T05:49:34;16.10;;;12.35;;
21202;SDS011;10759;51.982;9.232;2023-02-13T05:52:02;10.93;;;9.57;;
21202;SDS011;10759;51.982;9.232;2023-02-13T05:54:30;9.48;;;8.55;;
21202;SDS011;10759;51.982;9.232;2023-02-13T05:56:58;8.77;;;7.40;;
21202;SDS011;10759;51.982;9.232;2023-02-13T05:59:26;8.32;;;7.47;;
21202;SDS011;10759;51.982;9.232;2023-02-13T06:01:54;7.65;;;6.97;;
21202;SDS011;10759;51.982;9.232;2023-02-13T06:04:22;7.70;;;6.88;;
21202;SDS011;10759;51.982;9.232;2023-02-13T06:06:51;7.95;;;7.15;;
21202;SDS011;10759;51.982;9.232;2023-02-13T06:09:19;7.93;;;6.03;;
21202;SDS011;10759;51.982;9.232;2023-02-13T06:11:47;8.25;;;6.97;;
21202;SDS011;10759;51.982;9.232;2023-02-13T06:14:15;9.77;;;8.48;;
21202;SDS011;10759;51.982;9.232;2023-02-13T06:16:43;16.88;;;14.63;;
21202;SDS011;10759;51.982;9.232;2023-02-13T06:19:11;9.77;;;8.75;;
21202;SDS011;10759;51.982;9.232;2023-02-13T06:21:39;12.02;;;10.73;;
21202;SDS011;10759;51.982;9.232;2023-02-13T06:24:08;7.95;;;7.15;;
21202;SDS011;10759;51.982;9.232;2023-02-13T06:26:36;22.40;;;20.27;;
21202;SDS011;10759;51.982;9.232;2023-02-13T06:29:04;13.90;;;12.60;;
21202;SDS011;10759;51.982;9.232;2023-02-13T06:31:32;16.80;;;15.23;;
21202;SDS011;10759;51.982;9.232;2023-02-13T06:34:00;14.38;;;13.18;;
21202;SDS011;10759;51.982;9.232;2023-02-13T06:36:28;12.50;;;11.20;;
21202;SDS011;10759;51.982;9.232;2023-02-13T06:38:56;9.60;;;8.68;;
21202;SDS011;10759;51.982;9.232;2023-02-13T06:41:26;10.40;;;9.35;;
21202;SDS011;10759;51.982;9.232;2023-02-13T06:43:54;10.88;;;9.25;;
21202;SDS011;10759;51.982;9.232;2023-02-13T06:46:22;11.18;;;10.05;;
21202;SDS011;10759;51.982;9.232;2023-02-13T06:48:50;9.27;;;8.00;;
21202;SDS011;10759;51.982;9.232;2023-02-13T06:51:18;9.32;;;7.32;;
21202;SDS011;10759;51.982;9.232;2023-02-13T06:53:46;8.73;;;7.35;;
21202;SDS011;10759;51.982;9.232;2023-02-13T06:56:13;9.32;;;8.32;;
21202;SDS011;10759;51.982;9.232;2023-02-13T06:58:43;7.22;;;6.63;;
21202;SDS011;10759;51.982;9.232;2023-02-13T07:01:11;7.05;;;6.38;;
21202;SDS011;10759;51.982;9.232;2023-02-13T07:03:39;6.32;;;5.80;;
21202;SDS011;10759;51.982;9.232;2023-02-13T07:06:07;6.63;;;5.85;;
21202;SDS011;10759;51.982;9.232;2023-02-13T07:08:35;5.75;;;5.25;;
21202;SDS011;10759;51.982;9.232;2023-02-13T07:11:03;5.43;;;4.93;;
21202;SDS011;10759;51.982;9.232;2023-02-13T07:13:31;4.82;;;4.20;;
21202;SDS011;10759;51.982;9.232;2023-02-13T07:16:00;5.15;;;4.75;;
21202;SDS011;10759;51.982;9.232;2023-02-13T07:18:28;4.07;;;3.77;;
21202;SDS011;10759;51.982;9.232;2023-02-13T07:20:56;3.67;;;3.10;;
21202;SDS011;10759;51.982;9.232;2023-02-13T07:23:25;3.50;;;3.10;;
21202;SDS011;10759;51.982;9.232;2023-02-13T07:25:53;3.53;;;3.22;;
21202;SDS011;10759;51.982;9.232;2023-02-13T07:28:20;3.58;;;3.28;;
21202;SDS011;10759;51.982;9.232;2023-02-13T07:30:48;3.35;;;3.05;;
21202;SDS011;10759;51.982;9.232;2023-02-13T07:33:23;3.65;;;3.30;;
21202;SDS011;10759;51.982;9.232;2023-02-13T07:35:51;4.18;;;3.88;;
21202;SDS011;10759;51.982;9.232;2023-02-13T07:38:19;3.38;;;3.08;;
21202;SDS011;10759;51.982;9.232;2023-02-13T07:40:47;9.43;;;8.52;;
21202;SDS011;10759;51.982;9.232;2023-02-13T07:43:15;9.63;;;8.68;;
21202;SDS011;10759;51.982;9.232;2023-02-13T07:45:43;6.78;;;6.07;;
21202;SDS011;10759;51.982;9.232;2023-02-13T07:48:12;6.35;;;5.75;;
21202;SDS011;10759;51.982;9.232;2023-02-13T07:50:41;6.15;;;5.65;;
21202;SDS011;10759;51.982;9.232;2023-02-13T07:53:09;8.35;;;7.65;;
21202;SDS011;10759;51.982;9.232;2023-02-13T07:58:07;4.80;;;4.40;;
21202;SDS011;10759;51.982;9.232;2023-02-13T08:00:35;5.22;;;4.82;;
21202;SDS011;10759;51.982;9.232;2023-02-13T08:03:03;6.32;;;5.72;;
21202;SDS011;10759;51.982;9.232;2023-02-13T08:05:31;5.63;;;5.18;;
21202;SDS011;10759;51.982;9.232;2023-02-13T08:08:02;6.57;;;5.93;;
21202;SDS011;10759;51.982;9.232;2023-02-13T08:10:29;6.73;;;6.13;;
21202;SDS011;10759;51.982;9.232;2023-02-13T08:13:15;5.72;;;5.13;;
21202;SDS011;10759;51.982;9.232;2023-02-13T08:15:44;5.00;;;4.60;;
21202;SDS011;10759;51.982;9.232;2023-02-13T08:18:12;7.10;;;5.65;;
21202;SDS011;10759;51.982;9.232;2023-02-13T08:20:40;5.75;;;5.25;;
21202;SDS011;10759;51.982;9.232;2023-02-13T08:23:09;5.25;;;4.85;;
21202;SDS011;10759;51.982;9.232;2023-02-13T08:25:38;6.35;;;5.65;;
21202;SDS011;10759;51.982;9.232;2023-02-13T08:28:06;5.88;;;5.38;;
21202;SDS011;10759;51.982;9.232;2023-02-13T08:30:34;5.30;;;4.80;;
21202;SDS011;10759;51.982;9.232;2023-02-13T08:33:02;5.68;;;5.18;;
21202;SDS011;10759;51.982;9.232;2023-02-13T08:35:30;6.03;;;5.53;;
21202;SDS011;10759;51.982;9.232;2023-02-13T08:38:00;5.93;;;5.43;;
21202;SDS011;10759;51.982;9.232;2023-02-13T08:40:30;8.50;;;6.00;;
21202;SDS011;10759;51.982;9.232;2023-02-13T08:42:59;5.93;;;5.32;;
21202;SDS011;10759;51.982;9.232;2023-02-13T08:45:28;5.40;;;4.60;;
21202;SDS011;10759;51.982;9.232;2023-02-13T08:47:57;6.20;;;5.60;;
21202;SDS011;10759;51.982;9.232;2023-02-13T08:50:26;5.75;;;5.25;;
21202;SDS011;10759;51.982;9.232;2023-02-13T08:52:54;6.35;;;5.65;;
21202;SDS011;10759;51.982;9.232;2023-02-13T08:55:25;5.80;;;5.05;;
21202;SDS011;10759;51.982;9.232;2023-02-13T08:57:55;5.30;;;4.82;;
21202;SDS011;10759;51.982;9.232;2023-02-13T09:00:26;5.82;;;5.32;;
21202;SDS011;10759;51.982;9.232;2023-02-13T09:02:54;5.47;;;4.97;;
21202;SDS011;10759;51.982;9.232;2023-02-13T09:05:22;6.20;;;5.60;;
21202;SDS011;10759;51.982;9.232;2023-02-13T09:07:50;6.18;;;5.57;;
21202;SDS011;10759;51.982;9.232;2023-02-13T09:10:17;8.02;;;6.93;;
21202;SDS011;10759;51.982;9.232;2023-02-13T09:12:50;6.47;;;5.88;;
21202;SDS011;10759;51.982;9.232;2023-02-13T09:15:20;6.35;;;5.65;;
21202;SDS011;10759;51.982;9.232;2023-02-13T09:17:48;5.97;;;5.47;;
21202;SDS011;10759;51.982;9.232;2023-02-13T09:20:16;6.18;;;5.65;;
21202;SDS011;10759;51.982;9.232;2023-02-13T09:22:44;6.95;;;5.70;;
21202;SDS011;10759;51.982;9.232;2023-02-13T09:25:11;6.57;;;5.97;;
21202;SDS011;10759;51.982;9.232;2023-02-13T09:27:39;6.35;;;5.75;;
21202;SDS011;10759;51.982;9.232;2023-02-13T09:30:08;7.07;;;6.18;;
21202;SDS011;10759;51.982;9.232;2023-02-13T09:32:38;7.03;;;6.43;;
21202;SDS011;10759;51.982;9.232;2023-02-13T09:35:08;8.40;;;6.43;;
21202;SDS011;10759;51.982;9.232;2023-02-13T09:37:36;6.43;;;5.85;;
21202;SDS011;10759;51.982;9.232;2023-02-13T09:40:04;8.20;;;5.95;;
21202;SDS011;10759;51.982;9.232;2023-02-13T09:42:33;6.97;;;5.97;;
21202;SDS011;10759;51.982;9.232;2023-02-13T09:45:03;6.97;;;6.38;;
21202;SDS011;10759;51.982;9.232;2023-02-13T09:47:35;6.57;;;5.78;;
21202;SDS011;10759;51.982;9.232;2023-02-13T09:50:06;7.15;;;6.50;;
21202;SDS011;10759;51.982;9.232;2023-02-13T09:52:42;6.85;;;6.25;;
21202;SDS011;10759;51.982;9.232;2023-02-13T09:55:13;5.93;;;5.32;;
21202;SDS011;10759;51.982;9.232;2023-02-13T09:57:45;8.30;;;6.15;;
21202;SDS011;10759;51.982;9.232;2023-02-13T10:00:19;6.68;;;6.07;;
21202;SDS011;10759;51.982;9.232;2023-02-13T10:02:52;5.97;;;5.47;;
21202;SDS011;10759;51.982;9.232;2023-02-13T10:05:44;8.02;;;6.70;;
21202;SDS011;10759;51.982;9.232;2023-02-13T10:08:29;5.78;;;5.28;;
21202;SDS011;10759;51.982;9.232;2023-02-13T10:11:08;6.65;;;6.03;;
21202;SDS011;10759;51.982;9.232;2023-02-13T10:13:51;7.72;;;7.03;;
21202;SDS011;10759;51.982;9.232;2023-02-13T10:16:28;6.07;;;5.57;;
21202;SDS011;10759;51.982;9.232;2023-02-13T10:19:00;6.85;;;6.25;;
21202;SDS011;10759;51.982;9.232;2023-02-13T10:21:37;6.45;;;5.85;;
21202;SDS011;10759;51.982;9.232;2023-02-13T10:24:15;6.35;;;5.22;;
21202;SDS011;10759;51.982;9.232;2023-02-13T10:26:51;5.13;;;4.63;;
21202;SDS011;10759;51.982;9.232;2023-02-13T10:29:22;6.07;;;5.15;;
21202;SDS011;10759;51.982;9.232;2023-02-13T10:32:14;5.85;;;5.35;;
21202;SDS011;10759;51.982;9.232;2023-02-13T10:34:47;5.57;;;5.07;;
21202;SDS011;10759;51.982;9.232;2023-02-13T10:37:19;5.80;;;5.30;;
21202;SDS011;10759;51.982;9.232;2023-02-13T10:39:49;6.00;;;5.47;;
21202;SDS011;10759;51.982;9.232;2023-02-13T10:42:20;7.25;;;6.22;;
21202;SDS011;10759;51.982;9.232;2023-02-13T10:44:55;6.00;;;5.40;;
21202;SDS011;10759;51.982;9.232;2023-02-13T10:47:36;6.07;;;5.57;;
21202;SDS011;10759;51.982;9.232;2023-02-13T10:50:20;6.75;;;5.35;;
21202;SDS011;10759;51.982;9.232;2023-02-13T10:52:58;5.57;;;5.07;;
21202;SDS011;10759;51.982;9.232;2023-02-13T10:55:55;6.25;;;5.10;;
21202;SDS011;10759;51.982;9.232;2023-02-13T10:58:35;6.15;;;5.60;;
21202;SDS011;10759;51.982;9.232;2023-02-13T11:01:15;5.80;;;5.22;;
21202;SDS011;10759;51.982;9.232;2023-02-13T11:03:47;6.13;;;5.63;;
21202;SDS011;10759;51.982;9.232;2023-02-13T11:06:26;5.50;;;5.00;;
21202;SDS011;10759;51.982;9.232;2023-02-13T11:08:57;5.63;;;5.13;;
21202;SDS011;10759;51.982;9.232;2023-02-13T11:11:29;6.00;;;5.50;;
21202;SDS011;10759;51.982;9.232;2023-02-13T11:17:39;6.30;;;5.80;;
21202;SDS011;10759;51.982;9.232;2023-02-13T11:22:52;7.53;;;6.82;;
21202;SDS011;10759;51.982;9.232;2023-02-13T11:25:24;6.35;;;5.85;;
21202;SDS011;10759;51.982;9.232;2023-02-13T11:28:03;6.32;;;5.82;;
21202;SDS011;10759;51.982;9.232;2023-02-13T11:30:35;6.25;;;5.63;;
21202;SDS011;10759;51.982;9.232;2023-02-13T11:35:33;6.80;;;6.20;;
21202;SDS011;10759;51.982;9.232;2023-02-13T11:38:12;6.70;;;6.10;;
21202;SDS011;10759;51.982;9.232;2023-02-13T11:40:50;6.13;;;5.63;;
21202;SDS011;10759;51.982;9.232;2023-02-13T11:43:32;6.03;;;5.53;;
21202;SDS011;10759;51.982;9.232;2023-02-13T11:46:03;6.10;;;5.60;;
21202;SDS011;10759;51.982;9.232;2023-02-13T11:48:33;5.55;;;4.93;;
21202;SDS011;10759;51.982;9.232;2023-02-13T11:51:02;5.57;;;5.07;;
21202;SDS011;10759;51.982;9.232;2023-02-13T11:53:31;5.75;;;5.25;;
21202;SDS011;10759;51.982;9.232;2023-02-13T11:56:09;6.28;;;5.72;;
21202;SDS011;10759;51.982;9.232;2023-02-13T11:58:39;5.38;;;4.88;;
21202;SDS011;10759;51.982;9.232;2023-02-13T12:01:24;6.72;;;6.13;;
21202;SDS011;10759;51.982;9.232;2023-02-13T12:04:01;6.70;;;5.97;;
21202;SDS011;10759;51.982;9.232;2023-02-13T12:06:33;6.65;;;5.95;;
21202;SDS011;10759;51.982;9.232;2023-02-13T12:09:09;6.85;;;6.20;;
21202;SDS011;10759;51.982;9.232;2023-02-13T12:11:43;6.15;;;5.65;;
21202;SDS011;10759;51.982;9.232;2023-02-13T12:14:17;7.38;;;6.78;;
21202;SDS011;10759;51.982;9.232;2023-02-13T12:16:47;6.55;;;5.95;;
21202;SDS011;10759;51.982;9.232;2023-02-13T12:19:21;6.45;;;5.90;;
21202;SDS011;10759;51.982;9.232;2023-02-13T12:22:01;7.00;;;6.40;;
21202;SDS011;10759;51.982;9.232;2023-02-13T12:24:40;6.43;;;5.82;;
21202;SDS011;10759;51.982;9.232;2023-02-13T12:27:24;6.45;;;5.95;;
21202;SDS011;10759;51.982;9.232;2023-02-13T12:30:13;6.82;;;6.22;;
21202;SDS011;10759;51.982;9.232;2023-02-13T12:32:58;6.25;;;5.75;;
21202;SDS011;10759;51.982;9.232;2023-02-13T12:35:44;6.97;;;6.38;;
21202;SDS011;10759;51.982;9.232;2023-02-13T12:38:23;6.40;;;5.90;;
21202;SDS011;10759;51.982;9.232;2023-02-13T12:41:08;6.90;;;6.03;;
21202;SDS011;10759;51.982;9.232;2023-02-13T12:43:49;6.85;;;6.25;;
21202;SDS011;10759;51.982;9.232;2023-02-13T12:46:45;6.47;;;5.88;;
21202;SDS011;10759;51.982;9.232;2023-02-13T12:49:30;6.30;;;5.70;;
21202;SDS011;10759;51.982;9.232;2023-02-13T12:55:03;5.82;;;5.32;;
21202;SDS011;10759;51.982;9.232;2023-02-13T12:57:47;5.43;;;5.03;;
21202;SDS011;10759;51.982;9.232;2023-02-13T13:00:32;6.78;;;6.20;;
21202;SDS011;10759;51.982;9.232;2023-02-13T13:03:14;6.60;;;6.10;;
21202;SDS011;10759;51.982;9.232;2023-02-13T13:06:03;6.93;;;6.43;;
21202;SDS011;10759;51.982;9.232;2023-02-13T13:08:52;6.50;;;6.00;;
21202;SDS011;10759;51.982;9.232;2023-02-13T13:11:47;6.88;;;6.35;;
21202;SDS011;10759;51.982;9.232;2023-02-13T13:14:26;7.28;;;6.68;;
21202;SDS011;10759;51.982;9.232;2023-02-13T13:17:06;7.20;;;6.60;;
21202;SDS011;10759;51.982;9.232;2023-02-13T13:19:44;7.18;;;6.00;;
21202;SDS011;10759;51.982;9.232;2023-02-13T13:22:20;6.93;;;6.32;;
21202;SDS011;10759;51.982;9.232;2023-02-13T13:24:55;7.38;;;6.68;;
21202;SDS011;10759;51.982;9.232;2023-02-13T13:27:31;6.75;;;6.15;;
21202;SDS011;10759;51.982;9.232;2023-02-13T13:30:03;8.82;;;6.40;;
21202;SDS011;10759;51.982;9.232;2023-02-13T13:32:41;7.68;;;6.50;;
21202;SDS011;10759;51.982;9.232;2023-02-13T13:35:12;6.85;;;6.25;;
21202;SDS011;10759;51.982;9.232;2023-02-13T13:37:42;7.13;;;6.50;;
21202;SDS011;10759;51.982;9.232;2023-02-13T13:40:20;6.78;;;6.28;;
21202;SDS011;10759;51.982;9.232;2023-02-13T13:42:58;7.43;;;6.82;;
21202;SDS011;10759;51.982;9.232;2023-02-13T13:45:34;6.95;;;6.35;;
21202;SDS011;10759;51.982;9.232;2023-02-13T13:48:15;6.75;;;6.15;;
21202;SDS011;10759;51.982;9.232;2023-02-13T13:50:53;7.13;;;6.63;;
21202;SDS011;10759;51.982;9.232;2023-02-13T13:53:22;7.00;;;6.50;;
21202;SDS011;10759;51.982;9.232;2023-02-13T13:55:58;7.30;;;6.60;;
21202;SDS011;10759;51.982;9.232;2023-02-13T13:58:34;7.25;;;6.65;;
21202;SDS011;10759;51.982;9.232;2023-02-13T14:01:20;6.53;;;5.90;;
21202;SDS011;10759;51.982;9.232;2023-02-13T14:03:56;6.88;;;6.28;;
21202;SDS011;10759;51.982;9.232;2023-02-13T14:06:25;6.18;;;5.68;;
21202;SDS011;10759;51.982;9.232;2023-02-13T14:08:56;6.63;;;6.10;;
21202;SDS011;10759;51.982;9.232;2023-02-13T14:11:38;7.35;;;6.65;;
21202;SDS011;10759;51.982;9.232;2023-02-13T14:20:25;7.45;;;6.80;;
21202;SDS011;10759;51.982;9.232;2023-02-13T14:23:06;6.50;;;5.93;;
21202;SDS011;10759;51.982;9.232;2023-02-13T14:25:40;6.38;;;5.70;;
21202;SDS011;10759;51.982;9.232;2023-02-13T14:28:14;6.65;;;6.05;;
21202;SDS011;10759;51.982;9.232;2023-02-13T14:30:48;6.90;;;6.40;;
21202;SDS011;10759;51.982;9.232;2023-02-13T14:33:22;7.20;;;6.60;;
21202;SDS011;10759;51.982;9.232;2023-02-13T14:36:00;6.10;;;5.60;;
21202;SDS011;10759;51.982;9.232;2023-02-13T14:38:32;7.05;;;6.45;;
21202;SDS011;10759;51.982;9.232;2023-02-13T14:41:01;7.25;;;6.65;;
21202;SDS011;10759;51.982;9.232;2023-02-13T14:43:32;8.10;;;7.30;;
21202;SDS011;10759;51.982;9.232;2023-02-13T14:46:21;6.07;;;5.57;;
21202;SDS011;10759;51.982;9.232;2023-02-13T14:48:55;6.88;;;5.95;;
21202;SDS011;10759;51.982;9.232;2023-02-13T14:51:29;6.35;;;5.80;;
21202;SDS011;10759;51.982;9.232;2023-02-13T14:54:03;6.60;;;6.05;;
21202;SDS011;10759;51.982;9.232;2023-02-13T14:56:36;6.63;;;6.03;;
21202;SDS011;10759;51.982;9.232;2023-02-13T14:59:09;7.50;;;6.90;;
21202;SDS011;10759;51.982;9.232;2023-02-13T15:01:42;9.55;;;8.73;;
21202;SDS011;10759;51.982;9.232;2023-02-13T15:04:20;7.32;;;6.68;;
21202;SDS011;10759;51.982;9.232;2023-02-13T15:06:53;6.65;;;6.15;;
21202;SDS011;10759;51.982;9.232;2023-02-13T15:09:26;6.53;;;6.03;;
21202;SDS011;10759;51.982;9.232;2023-02-13T15:11:58;10.10;;;7.25;;
21202;SDS011;10759;51.982;9.232;2023-02-13T15:14:30;7.32;;;6.72;;
21202;SDS011;10759;51.982;9.232;2023-02-13T15:17:04;7.18;;;6.57;;
21202;SDS011;10759;51.982;9.232;2023-02-13T15:19:42;7.28;;;6.57;;
21202;SDS011;10759;51.982;9.232;2023-02-13T15:22:17;7.15;;;6.55;;
21202;SDS011;10759;51.982;9.232;2023-02-13T15:24:48;7.63;;;6.93;;
21202;SDS011;10759;51.982;9.232;2023-02-13T15:27:18;6.93;;;6.40;;
21202;SDS011;10759;51.982;9.232;2023-02-13T15:29:55;7.13;;;6.63;;
21202;SDS011;10759;51.982;9.232;2023-02-13T15:32:27;7.82;;;7.13;;
21202;SDS011;10759;51.982;9.232;2023-02-13T15:34:57;6.68;;;6.07;;
21202;SDS011;10759;51.982;9.232;2023-02-13T15:37:28;9.10;;;8.20;;
21202;SDS011;10759;51.982;9.232;2023-02-13T15:40:13;16.90;;;7.63;;
21202;SDS011;10759;51.982;9.232;2023-02-13T15:42:42;7.75;;;7.05;;